SBSVSBJP

Guest
Details From SBSV - Salvador Bahia Deputado Luis Eduardo M
To SBJP - Presidente Castro Pinto
Flight Number -
Tags Decoded
Created
Modified
Stats Distance 400 nm / 741 km
Max Altitude 0 ft / 0 m
Waypoints 2
Social Downloads 6
Likes 0
Share VATSIM

Download

Looking for another format? Having issues loading an existing format? Contact us
Advertisement - Login to hide

Notes

Decoded

Route

SBSV SBJP

ID Type Via Altitude Latitude Longitude Leg Dist Tot Dist Heading (true) Name
O SBSV APT - 0 ft / 0 m -12.90821˚ -38.34316˚ - 0 nm - -
O SBJP APT - 0 ft / 0 m -7.14026˚ -34.95867˚ 400 nm 400 nm 30° / 30° -

Altitude Profile

Advertisement - Login to hide

Weather


0- 5 10 15 20 25 30 35+ Temperature / ° C

Clouds and Precipitation
Forecast for 2017-12-15 12:00 UTC. Updated 2 hours ago

Ground ~20,000 ft ~40,000 ft Winds

SBSV

Details ICAO SBSV (SSA)
Name Salvador Bahia Deputado Luis Eduardo M
Region Brazil
Timezone America/Bahia (UTC-3.0)
Stats Elevation 64 ft / 20 m (AMSL)
Location -12.910994° -38.331043°
Runways 2
Magnetic Variation 23.437° W

METAR

SBSV 151200Z 07007KT 9999 SCT017 FEW020TCU BKN070 26/22 Q1016

Decode

TAF

TAF SBSV 151000Z 1512/1612 09009KT 8000SCT017 TX29/1515Z TN24/1607Z RMK PEI

Decode

Departure Runways

ID Width Length Bearing (true) Bearing (mag) Surface Threshold Offset Overrun Length
10 148 ft / 45 m 9,845 ft / 3,001 m 78.32° 101.76° Asphalt 0 ft / 0 m 205 ft / 62 m
17 148 ft / 45 m 5,014 ft / 1,528 m 144.04° 167.48° Asphalt 0 ft / 0 m 0 ft / 0 m
28 148 ft / 45 m 9,845 ft / 3,001 m 258.31° 281.75° Asphalt 0 ft / 0 m 205 ft / 62 m
35 148 ft / 45 m 5,014 ft / 1,528 m 324.04° 347.48° Asphalt 0 ft / 0 m 0 ft / 0 m

SBJP

Details ICAO SBJP (JPA)
Name Presidente Castro Pinto
Region Brazil
Timezone America/Fortaleza (UTC-3.0)
Stats Elevation 215 ft / 66 m (AMSL)
Location -7.148382° -34.950680°
Runways 1
Magnetic Variation 21.767° W

METAR

SBJP 151200Z 12010KT 9999 BKN030 30/20 Q1015

Decode

TAF

TAF SBJP 151000Z 1512/1612 13013KT 9999 BKN025 TX31/1515Z TN24/1608Z BECMG 1516/1518 SCT030 BECMG 1521/1522 16007KT BECMG 1609/161114012KT BKN020 RMK PEI

Decode

Destination Runways

ID Width Length Bearing (true) Bearing (mag) Surface Threshold Offset Overrun Length
16 148 ft / 45 m 8,282 ft / 2,524 m 135.67° 157.44° Asphalt 0 ft / 0 m 0 ft / 0 m
34 148 ft / 45 m 8,282 ft / 2,524 m 315.67° 337.44° Asphalt 0 ft / 0 m 200 ft / 61 m

Popular Alternatives